Time;durP1;ratioP1;P1;durP2;ratioP2;P2;SDS_P1;SDS_P2;PMS_P1;PMS_P2;Temp;Humidity;BMP_temperature;BMP_pressure;BME280_temperature;BME280_humidity;BME280_pressure;Samples;Min_cycle;Max_cycle;Signal;HPM_P1;HPM_P2
2023/10/01 00:01:03;;;;;;;;;;;;;;;;;;5113414;28;20254;-64
2023/10/01 00:03:28;;;;;;;;;;;;;;;;;;5113300;28;19915;-62
2023/10/01 00:05:54;;;;;;;;;;;;;;;;;;5113762;28;19918;-64
2023/10/01 00:08:19;;;;;;;;;;;;;;;;;;5112233;28;19911;-64
2023/10/01 00:10:45;;;;;;;;;;;;;;;;;;5113266;28;19951;-63
2023/10/01 00:13:11;;;;;;;;;;;;;;;;;;5113511;28;19918;-64
2023/10/01 00:15:37;;;;;;;;;;;;;;;;;;5092319;28;19916;-62
2023/10/01 00:18:05;;;;;;;;;;;;;;;;;;5072870;28;19966;-63
2023/10/01 00:20:33;;;;;;;;;;;;;;;;;;5072484;28;20390;-62
2023/10/01 00:23:00;;;;;;;;;;;;;;;;;;5072697;28;19913;-63
2023/10/01 00:25:27;;;;;;;;;;;;;;;;;;5071986;28;19920;-63
2023/10/01 00:27:53;;;;;;;;;;;;;;;;;;5072652;28;19916;-63
2023/10/01 00:30:18;;;;;;;;;;;;;;;;;;5070917;28;19924;-63
2023/10/01 00:32:43;;;;;;;;;;;;;;;;;;5067342;28;19911;-63
2023/10/01 00:35:12;;;;;;;;;;;;;;;;;;5094718;28;19916;-63
2023/10/01 00:37:37;;;;;;;;;;;;;;;;;;5113061;28;19929;-63
2023/10/01 00:40:06;;;;;;;;;;;;;;;;;;5112794;28;19916;-64
2023/10/01 00:42:31;;;;;;;;;;;;;;;;;;5111447;28;20011;-62
2023/10/01 00:44:57;;;;;;;;;;;;;;;;;;5112756;28;20386;-64
2023/10/01 00:47:23;;;;;;;;;;;;;;;;;;5112461;28;20006;-62
2023/10/01 00:49:48;;;;;;;;;;;;;;;;;;5112616;28;20035;-62
2023/10/01 00:52:13;;;;;;;;;;;;;;;;;;5112600;28;19911;-64
2023/10/01 00:54:39;;;;;;;;;;;;;;;;;;5112526;28;19916;-63
2023/10/01 00:57:04;;;;;;;;;;;;;;;;;;5094209;28;20002;-63
2023/10/01 00:59:32;;;;;;;;;;;;;;;;;;5112383;28;19915;-64
2023/10/01 01:01:58;;;;;;;;;;;;;;;;;;5112386;28;19918;-62
2023/10/01 01:04:23;;;;;;;;;;;;;;;;;;5112257;28;20303;-64
2023/10/01 01:06:48;;;;;;;;;;;;;;;;;;5112596;28;20432;-63
2023/10/01 01:09:15;;;;;;;;;;;;;;;;;;5110953;28;20285;-64
2023/10/01 01:11:40;;;;;;;;;;;;;;;;;;5111125;28;20257;-63
2023/10/01 01:14:07;;;;;;;;;;;;;;;;;;5110907;28;19919;-63
2023/10/01 01:16:33;;;;;;;;;;;;;;;;;;5112522;28;20353;-63
2023/10/01 01:19:00;;;;;;;;;;;;;;;;;;5110999;28;19988;-62
2023/10/01 01:21:25;;;;;;;;;;;;;;;;;;5112280;28;19907;-63
2023/10/01 01:23:51;;;;;;;;;;;;;;;;;;5112331;28;19961;-64
2023/10/01 01:26:21;;;;;;;;;;;;;;;;;;5110837;28;19919;-64
2023/10/01 01:28:46;;;;;;;;;;;;;;;;;;5112114;28;19919;-62
2023/10/01 01:31:11;;;;;;;;;;;;;;;;;;5112080;28;20048;-63
2023/10/01 01:33:40;;;;;;;;;;;;;;;;;;5110607;28;19962;-63
2023/10/01 01:36:06;;;;;;;;;;;;;;;;;;5112248;28;20000;-62
2023/10/01 01:38:31;;;;;;;;;;;;;;;;;;5113416;28;19961;-64
2023/10/01 01:40:56;;;;;;;;;;;;;;;;;;5115097;28;19918;-63
2023/10/01 01:43:22;;;;;;;;;;;;;;;;;;5097982;28;19912;-63
2023/10/01 01:45:47;;;;;;;;;;;;;;;;;;5114722;28;19927;-63
2023/10/01 01:48:25;;;;;;;;;;;;;;;;;;5097885;28;19943;-63
2023/10/01 01:50:54;;;;;;;;;;;;;;;;;;5114799;28;20362;-62
2023/10/01 01:53:20;;;;;;;;;;;;;;;;;;5116274;28;19913;-62
2023/10/01 01:55:47;;;;;;;;;;;;;;;;;;5116096;28;19942;-63
2023/10/01 01:58:15;;;;;;;;;;;;;;;;;;5114767;28;19911;-63
2023/10/01 02:01:01;;;;;;;;;;;;;;;;;;5097508;28;19962;-63
2023/10/01 02:03:26;;;;;;;;;;;;;;;;;;5115718;28;19926;-64
2023/10/01 02:05:52;;;;;;;;;;;;;;;;;;5097541;28;20015;-64
2023/10/01 02:08:24;;;;;;;;;;;;;;;;;;5114576;28;20010;-64
2023/10/01 02:10:50;;;;;;;;;;;;;;;;;;5114639;28;19923;-62
2023/10/01 02:13:18;;;;;;;;;;;;;;;;;;5114304;28;19915;-63
2023/10/01 02:15:45;;;;;;;;;;;;;;;;;;5114373;28;19973;-63
2023/10/01 02:18:10;;;;;;;;;;;;;;;;;;5114411;28;19919;-65
2023/10/01 02:20:36;;;;;;;;;;;;;;;;;;5114297;28;19915;-62
2023/10/01 02:23:33;;;;;;;;;;;;;;;;;;5100185;28;19998;-63
2023/10/01 02:26:00;;;;;;;;;;;;;;;;;;5114078;28;19915;-64
2023/10/01 02:28:26;;;;;;;;;;;;;;;;;;5114011;28;19915;-65
2023/10/01 02:30:57;;;;;;;;;;;;;;;;;;5114012;28;19942;-61
2023/10/01 02:33:24;;;;;;;;;;;;;;;;;;5115498;28;19912;-63
2023/10/01 02:35:54;;;;;;;;;;;;;;;;;;5115207;28;20312;-63
2023/10/01 02:41:08;;;;;;;;;;;;;;;;;;5115243;28;20006;-64
2023/10/01 02:43:34;;;;;;;;;;;;;;;;;;5113685;28;19916;-63
2023/10/01 02:45:59;;;;;;;;;;;;;;;;;;5096496;28;19977;-64
2023/10/01 02:48:26;;;;;;;;;;;;;;;;;;5110814;28;19912;-63
2023/10/01 02:50:54;;;;;;;;;;;;;;;;;;5081568;28;19925;-61
2023/10/01 02:53:22;;;;;;;;;;;;;;;;;;5087458;28;19947;-63
2023/10/01 02:55:47;;;;;;;;;;;;;;;;;;5094477;28;19939;-65
2023/10/01 02:58:49;;;;;;;;;;;;;;;;;;5059501;28;20377;-62
2023/10/01 03:01:08;;;;;;;;;;;;;;;;;;5088039;28;19923;-63
2023/10/01 03:03:38;;;;;;;;;;;;;;;;;;5093034;28;19923;-63
2023/10/01 03:06:10;;;;;;;;;;;;;;;;;;5075918;28;20395;-63
2023/10/01 03:08:59;;;;;;;;;;;;;;;;;;5094198;28;20004;-63
2023/10/01 03:11:24;;;;;;;;;;;;;;;;;;5094084;28;19920;-63
2023/10/01 03:13:51;;;;;;;;;;;;;;;;;;5093986;28;19923;-62
2023/10/01 03:19:13;;;;;;;;;;;;;;;;;;5092723;28;20377;-63
2023/10/01 03:24:25;;;;;;;;;;;;;;;;;;5094151;28;19916;-63
2023/10/01 03:26:50;;;;;;;;;;;;;;;;;;5093709;28;19912;-61
2023/10/01 03:29:34;;;;;;;;;;;;;;;;;;5093572;28;20015;-63
2023/10/01 03:32:26;;;;;;;;;;;;;;;;;;5092861;28;19918;-62
2023/10/01 03:34:46;;;;;;;;;;;;;;;;;;5113906;28;20346;-63
2023/10/01 03:37:13;;;;;;;;;;;;;;;;;;5112778;28;19968;-63
2023/10/01 03:39:42;;;;;;;;;;;;;;;;;;5114009;28;19951;-64
2023/10/01 03:42:17;;;;;;;;;;;;;;;;;;5114051;28;20007;-62
2023/10/01 03:47:29;;;;;;;;;;;;;;;;;;5112600;28;19965;-63
2023/10/01 03:49:55;;;;;;;;;;;;;;;;;;5113694;28;19919;-63
2023/10/01 03:52:29;;;;;;;;;;;;;;;;;;5112363;28;19915;-63
2023/10/01 03:57:23;;;;;;;;;;;;;;;;;;5113494;28;19988;-63
2023/10/01 03:59:52;;;;;;;;;;;;;;;;;;5113050;28;19915;-63
2023/10/01 04:02:27;;;;;;;;;;;;;;;;;;5113673;28;19911;-63
2023/10/01 04:04:58;;;;;;;;;;;;;;;;;;5112103;28;19915;-65
2023/10/01 04:07:26;;;;;;;;;;;;;;;;;;5113727;28;20437;-63
2023/10/01 04:09:51;;;;;;;;;;;;;;;;;;5113574;28;20346;-64
2023/10/01 04:12:20;;;;;;;;;;;;;;;;;;5113608;28;19912;-64
2023/10/01 04:15:01;;;;;;;;;;;;;;;;;;5113444;28;20308;-65
2023/10/01 04:17:26;;;;;;;;;;;;;;;;;;5113601;28;19915;-64
2023/10/01 04:20:00;;;;;;;;;;;;;;;;;;5113467;28;20411;-64
2023/10/01 04:22:26;;;;;;;;;;;;;;;;;;5113326;28;19956;-63
2023/10/01 04:25:00;;;;;;;;;;;;;;;;;;5113035;28;20334;-64
2023/10/01 04:27:30;;;;;;;;;;;;;;;;;;5112981;28;19912;-62
2023/10/01 04:29:58;;;;;;;;;;;;;;;;;;5112799;28;19923;-63
2023/10/01 04:32:23;;;;;;;;;;;;;;;;;;5111544;28;20365;-64
2023/10/01 04:34:49;;;;;;;;;;;;;;;;;;5112775;28;19915;-64
2023/10/01 04:37:31;;;;;;;;;;;;;;;;;;5112896;28;19973;-63
2023/10/01 04:39:57;;;;;;;;;;;;;;;;;;5111545;28;19926;-62
2023/10/01 04:42:22;;;;;;;;;;;;;;;;;;5113090;28;20009;-64
2023/10/01 04:44:47;;;;;;;;;;;;;;;;;;5112607;28;20012;-63
2023/10/01 04:47:48;;;;;;;;;;;;;;;;;;5112791;28;19911;-63
2023/10/01 04:50:06;;;;;;;;;;;;;;;;;;5110342;28;20008;-64
2023/10/01 04:52:32;;;;;;;;;;;;;;;;;;5111506;28;19916;-64
2023/10/01 04:54:58;;;;;;;;;;;;;;;;;;5112870;28;20384;-65
2023/10/01 04:57:25;;;;;;;;;;;;;;;;;;5111163;28;19972;-64
2023/10/01 04:59:56;;;;;;;;;;;;;;;;;;5112750;28;19916;-63
2023/10/01 05:02:21;;;;;;;;;;;;;;;;;;5111261;28;19947;-64
2023/10/01 05:04:47;;;;;;;;;;;;;;;;;;5112467;28;19955;-64
2023/10/01 05:07:15;;;;;;;;;;;;;;;;;;5104421;28;19912;-64
2023/10/01 05:09:41;;;;;;;;;;;;;;;;;;5080017;28;19968;-61
2023/10/01 05:12:08;;;;;;;;;;;;;;;;;;5080468;28;19919;-61
2023/10/01 05:14:52;;;;;;;;;;;;;;;;;;5084545;28;19916;-62
2023/10/01 05:17:17;;;;;;;;;;;;;;;;;;5080694;28;19928;-60
2023/10/01 05:19:43;;;;;;;;;;;;;;;;;;5081909;28;19943;-61
2023/10/01 05:22:08;;;;;;;;;;;;;;;;;;5087863;28;19912;-60
2023/10/01 05:24:36;;;;;;;;;;;;;;;;;;5091800;28;19923;-60
2023/10/01 05:27:02;;;;;;;;;;;;;;;;;;5091907;28;19911;-62
2023/10/01 05:29:28;;;;;;;;;;;;;;;;;;5087093;28;19939;-61
2023/10/01 05:31:55;;;;;;;;;;;;;;;;;;5080410;28;20358;-61
2023/10/01 05:34:21;;;;;;;;;;;;;;;;;;5083034;28;19927;-62
2023/10/01 05:36:47;;;;;;;;;;;;;;;;;;5077509;28;20205;-62
2023/10/01 05:39:16;;;;;;;;;;;;;;;;;;5072005;28;19921;-61
2023/10/01 05:41:44;;;;;;;;;;;;;;;;;;5071099;28;19919;-62
2023/10/01 05:44:10;;;;;;;;;;;;;;;;;;5072120;28;19917;-60
2023/10/01 05:46:36;;;;;;;;;;;;;;;;;;5071878;28;19921;-61
2023/10/01 05:49:03;;;;;;;;;;;;;;;;;;5071338;28;19916;-61
2023/10/01 05:51:42;;;;;;;;;;;;;;;;;;5071470;28;19927;-60
2023/10/01 05:54:07;;;;;;;;;;;;;;;;;;5071401;28;19916;-62
2023/10/01 05:56:43;;;;;;;;;;;;;;;;;;5071348;28;19960;-60
2023/10/01 05:59:10;;;;;;;;;;;;;;;;;;5071376;28;20003;-61
2023/10/01 06:01:36;;;;;;;;;;;;;;;;;;5070171;28;19962;-61
2023/10/01 06:04:01;;;;;;;;;;;;;;;;;;5070109;28;19916;-60
2023/10/01 06:06:26;;;;;;;;;;;;;;;;;;5069732;28;19957;-62
2023/10/01 06:08:58;;;;;;;;;;;;;;;;;;5071258;28;19977;-61
2023/10/01 06:11:38;;;;;;;;;;;;;;;;;;5071230;28;19926;-61
2023/10/01 06:14:04;;;;;;;;;;;;;;;;;;5071211;28;19917;-61
2023/10/01 06:16:29;;;;;;;;;;;;;;;;;;5069776;28;19916;-63
2023/10/01 06:18:58;;;;;;;;;;;;;;;;;;5071160;28;20010;-61
2023/10/01 06:21:24;;;;;;;;;;;;;;;;;;5071383;28;19912;-61
2023/10/01 06:23:50;;;;;;;;;;;;;;;;;;5076864;28;20447;-61
2023/10/01 06:26:15;;;;;;;;;;;;;;;;;;5084535;28;19912;-61
2023/10/01 06:28:41;;;;;;;;;;;;;;;;;;5082667;28;19923;-59
2023/10/01 06:31:06;;;;;;;;;;;;;;;;;;5073285;28;19932;-62
2023/10/01 06:33:35;;;;;;;;;;;;;;;;;;5087798;28;20020;-62
2023/10/01 06:36:16;;;;;;;;;;;;;;;;;;5085767;28;19957;-61
2023/10/01 06:38:43;;;;;;;;;;;;;;;;;;5084538;28;19917;-61
2023/10/01 06:41:13;;;;;;;;;;;;;;;;;;5083155;28;19912;-60
2023/10/01 06:43:48;;;;;;;;;;;;;;;;;;5084418;28;19920;-61
2023/10/01 06:46:13;;;;;;;;;;;;;;;;;;5074420;28;19920;-61
2023/10/01 06:48:40;;;;;;;;;;;;;;;;;;5074428;28;20347;-61
2023/10/01 06:51:05;;;;;;;;;;;;;;;;;;5074305;28;19927;-60
2023/10/01 06:53:43;;;;;;;;;;;;;;;;;;5074441;28;19917;-61
2023/10/01 06:56:09;;;;;;;;;;;;;;;;;;5069934;28;19913;-61
2023/10/01 06:58:34;;;;;;;;;;;;;;;;;;5081578;28;19916;-61
2023/10/01 07:01:02;;;;;;;;;;;;;;;;;;5074218;28;20424;-61
2023/10/01 07:03:30;;;;;;;;;;;;;;;;;;5074273;28;19927;-61
2023/10/01 07:05:57;;;;;;;;;;;;;;;;;;5079327;28;19988;-61
2023/10/01 07:08:37;;;;;;;;;;;;;;;;;;5082673;28;19912;-61
2023/10/01 07:11:11;;;;;;;;;;;;;;;;;;5076536;28;19936;-61
2023/10/01 07:13:36;;;;;;;;;;;;;;;;;;5076619;28;20011;-60
2023/10/01 07:16:02;;;;;;;;;;;;;;;;;;5088180;28;19935;-63
2023/10/01 07:18:29;;;;;;;;;;;;;;;;;;5090316;28;19916;-60
2023/10/01 07:21:00;;;;;;;;;;;;;;;;;;5091578;28;20086;-62
2023/10/01 07:23:25;;;;;;;;;;;;;;;;;;5085296;28;19912;-61
2023/10/01 07:25:51;;;;;;;;;;;;;;;;;;5083915;28;20377;-62
2023/10/01 07:28:19;;;;;;;;;;;;;;;;;;5092708;28;20006;-61
2023/10/01 07:30:51;;;;;;;;;;;;;;;;;;5093822;28;19975;-61
2023/10/01 07:33:22;;;;;;;;;;;;;;;;;;5092437;28;20278;-62
2023/10/01 07:36:00;;;;;;;;;;;;;;;;;;5092605;28;19923;-62
2023/10/01 07:38:26;;;;;;;;;;;;;;;;;;5092251;28;19916;-61
2023/10/01 07:40:57;;;;;;;;;;;;;;;;;;5093682;28;20436;-63
2023/10/01 07:43:23;;;;;;;;;;;;;;;;;;5093977;28;19966;-62
2023/10/01 07:46:07;;;;;;;;;;;;;;;;;;5093439;28;19967;-62
2023/10/01 07:48:33;;;;;;;;;;;;;;;;;;5093341;28;20381;-60
2023/10/01 07:50:58;;;;;;;;;;;;;;;;;;5093472;28;19952;-63
2023/10/01 07:53:23;;;;;;;;;;;;;;;;;;5093819;28;19918;-61
2023/10/01 07:55:49;;;;;;;;;;;;;;;;;;5092230;28;20023;-62
2023/10/01 07:58:25;;;;;;;;;;;;;;;;;;5093770;28;19912;-63
2023/10/01 08:01:36;;;;;;;;;;;;;;;;;;5092282;28;19916;-62
2023/10/01 08:03:55;;;;;;;;;;;;;;;;;;5093929;28;20400;-61
2023/10/01 08:06:29;;;;;;;;;;;;;;;;;;5093350;28;20377;-62
2023/10/01 08:08:57;;;;;;;;;;;;;;;;;;5093396;28;20018;-61
2023/10/01 08:14:07;;;;;;;;;;;;;;;;;;5093286;28;20007;-60
2023/10/01 08:16:47;;;;;;;;;;;;;;;;;;5093252;28;20015;-61
2023/10/01 08:19:13;;;;;;;;;;;;;;;;;;5092902;28;20018;-61
2023/10/01 08:21:38;;;;;;;;;;;;;;;;;;5092814;28;19919;-61
2023/10/01 08:24:09;;;;;;;;;;;;;;;;;;5092680;28;19916;-61
2023/10/01 08:26:49;;;;;;;;;;;;;;;;;;5091808;28;19912;-62
2023/10/01 08:29:15;;;;;;;;;;;;;;;;;;5092626;28;19978;-62
2023/10/01 08:32:07;;;;;;;;;;;;;;;;;;5092713;28;20416;-61
2023/10/01 08:34:28;;;;;;;;;;;;;;;;;;5112844;28;19961;-62
2023/10/01 08:36:55;;;;;;;;;;;;;;;;;;5111591;28;19912;-63
2023/10/01 08:39:20;;;;;;;;;;;;;;;;;;5110412;28;19922;-61
2023/10/01 08:41:50;;;;;;;;;;;;;;;;;;5081576;28;19912;-62
2023/10/01 08:44:19;;;;;;;;;;;;;;;;;;5087993;28;19943;-61
2023/10/01 08:46:45;;;;;;;;;;;;;;;;;;5092327;28;19920;-59
2023/10/01 08:49:23;;;;;;;;;;;;;;;;;;5092209;28;19922;-61
2023/10/01 08:51:48;;;;;;;;;;;;;;;;;;5092457;28;20292;-61
2023/10/01 08:54:17;;;;;;;;;;;;;;;;;;5092191;28;19992;-61
2023/10/01 08:56:44;;;;;;;;;;;;;;;;;;5092482;28;19912;-62
2023/10/01 08:59:23;;;;;;;;;;;;;;;;;;5091776;28;20001;-61
2023/10/01 09:01:52;;;;;;;;;;;;;;;;;;5092253;28;19973;-62
2023/10/01 09:04:29;;;;;;;;;;;;;;;;;;5090605;28;20337;-63
2023/10/01 09:07:03;;;;;;;;;;;;;;;;;;5092055;28;19915;-61
2023/10/01 09:09:51;;;;;;;;;;;;;;;;;;5090397;28;19916;-61
2023/10/01 09:12:18;;;;;;;;;;;;;;;;;;5092035;28;19919;-62
2023/10/01 09:14:46;;;;;;;;;;;;;;;;;;5092088;28;20275;-61
2023/10/01 09:17:12;;;;;;;;;;;;;;;;;;5091819;28;20335;-61
2023/10/01 09:19:42;;;;;;;;;;;;;;;;;;5091853;28;19916;-61
2023/10/01 09:22:08;;;;;;;;;;;;;;;;;;5092046;28;20380;-61
2023/10/01 09:24:39;;;;;;;;;;;;;;;;;;5091751;28;19923;-61
2023/10/01 09:27:21;;;;;;;;;;;;;;;;;;5081303;28;19913;-60
2023/10/01 09:29:48;;;;;;;;;;;;;;;;;;5071388;28;19982;-63
2023/10/01 09:32:13;;;;;;;;;;;;;;;;;;5076213;28;20433;-62
2023/10/01 09:34:53;;;;;;;;;;;;;;;;;;5112568;28;19950;-62
2023/10/01 09:37:33;;;;;;;;;;;;;;;;;;5109261;28;19911;-63
2023/10/01 09:40:03;;;;;;;;;;;;;;;;;;5110805;28;19968;-61
2023/10/01 09:42:31;;;;;;;;;;;;;;;;;;5112111;28;19918;-62
2023/10/01 09:45:09;;;;;;;;;;;;;;;;;;5111871;28;20006;-63
2023/10/01 09:47:34;;;;;;;;;;;;;;;;;;5110784;28;19980;-62
2023/10/01 09:49:59;;;;;;;;;;;;;;;;;;5111740;28;19920;-62
2023/10/01 09:52:30;;;;;;;;;;;;;;;;;;5112210;28;19911;-64
2023/10/01 09:54:55;;;;;;;;;;;;;;;;;;5111878;28;19915;-63
2023/10/01 09:57:24;;;;;;;;;;;;;;;;;;5111650;28;20010;-63
2023/10/01 09:59:49;;;;;;;;;;;;;;;;;;5114989;28;20396;-64
2023/10/01 10:02:27;;;;;;;;;;;;;;;;;;5115848;28;19918;-63
2023/10/01 10:04:53;;;;;;;;;;;;;;;;;;5115912;28;20384;-63
2023/10/01 10:07:24;;;;;;;;;;;;;;;;;;5115999;28;19912;-63
2023/10/01 10:09:53;;;;;;;;;;;;;;;;;;5115688;28;20385;-62
2023/10/01 10:12:21;;;;;;;;;;;;;;;;;;5114390;28;19961;-62
2023/10/01 10:14:56;;;;;;;;;;;;;;;;;;5115865;28;19942;-61
2023/10/01 10:17:25;;;;;;;;;;;;;;;;;;5114331;28;20017;-61
2023/10/01 10:19:51;;;;;;;;;;;;;;;;;;5115464;28;19916;-61
2023/10/01 10:22:16;;;;;;;;;;;;;;;;;;5114428;28;19916;-60
2023/10/01 10:24:48;;;;;;;;;;;;;;;;;;5115547;28;20018;-62
2023/10/01 10:27:17;;;;;;;;;;;;;;;;;;5115575;28;19971;-61
2023/10/01 10:29:42;;;;;;;;;;;;;;;;;;5114151;28;19938;-62
2023/10/01 10:32:10;;;;;;;;;;;;;;;;;;5113905;28;20364;-61
2023/10/01 10:34:48;;;;;;;;;;;;;;;;;;5114024;28;19918;-60
2023/10/01 10:37:15;;;;;;;;;;;;;;;;;;5115221;28;19912;-62
2023/10/01 10:39:41;;;;;;;;;;;;;;;;;;5115006;28;19961;-61
2023/10/01 10:42:06;;;;;;;;;;;;;;;;;;5115387;28;19920;-61
2023/10/01 10:44:32;;;;;;;;;;;;;;;;;;5114856;28;19949;-61
2023/10/01 10:46:59;;;;;;;;;;;;;;;;;;5115294;28;19919;-61
2023/10/01 10:49:25;;;;;;;;;;;;;;;;;;5114874;28;19916;-60
2023/10/01 10:51:50;;;;;;;;;;;;;;;;;;5115223;28;19920;-62
2023/10/01 10:54:16;;;;;;;;;;;;;;;;;;5114870;28;20023;-62
2023/10/01 10:56:42;;;;;;;;;;;;;;;;;;5115022;28;19912;-64
2023/10/01 10:59:07;;;;;;;;;;;;;;;;;;5114777;28;20412;-62
2023/10/01 11:01:46;;;;;;;;;;;;;;;;;;5113338;28;19919;-61
2023/10/01 11:04:12;;;;;;;;;;;;;;;;;;5114600;28;19927;-63
2023/10/01 11:06:44;;;;;;;;;;;;;;;;;;5114917;28;20379;-61
2023/10/01 11:09:22;;;;;;;;;;;;;;;;;;5114169;28;19923;-63
2023/10/01 11:11:47;;;;;;;;;;;;;;;;;;5113067;28;19936;-61
2023/10/01 11:14:16;;;;;;;;;;;;;;;;;;5114636;28;19923;-62
2023/10/01 11:16:44;;;;;;;;;;;;;;;;;;5114615;28;19950;-62
2023/10/01 11:19:12;;;;;;;;;;;;;;;;;;5114380;28;19916;-61
2023/10/01 11:21:38;;;;;;;;;;;;;;;;;;5114454;28;19911;-61
2023/10/01 11:24:03;;;;;;;;;;;;;;;;;;5112822;28;20064;-62
2023/10/01 11:26:29;;;;;;;;;;;;;;;;;;5114265;28;19911;-62
2023/10/01 11:29:00;;;;;;;;;;;;;;;;;;5114285;28;19916;-62
2023/10/01 11:31:27;;;;;;;;;;;;;;;;;;5114041;28;19919;-61
2023/10/01 11:33:57;;;;;;;;;;;;;;;;;;5114280;28;20324;-62
2023/10/01 11:36:22;;;;;;;;;;;;;;;;;;5114098;28;19918;-63
2023/10/01 11:38:50;;;;;;;;;;;;;;;;;;5113822;28;19916;-62
2023/10/01 11:41:18;;;;;;;;;;;;;;;;;;5113879;28;20377;-61
2023/10/01 11:43:45;;;;;;;;;;;;;;;;;;5113851;28;20380;-62
2023/10/01 11:46:20;;;;;;;;;;;;;;;;;;5113974;28;20407;-64
2023/10/01 11:48:56;;;;;;;;;;;;;;;;;;5113947;28;19957;-63
2023/10/01 11:51:26;;;;;;;;;;;;;;;;;;5113613;27;19926;-62
2023/10/01 11:53:51;;;;;;;;;;;;;;;;;;5114009;28;19943;-63
2023/10/01 11:56:18;;;;;;;;;;;;;;;;;;5113649;28;20401;-62
2023/10/01 11:58:44;;;;;;;;;;;;;;;;;;5112331;28;19922;-61
2023/10/01 12:01:14;;;;;;;;;;;;;;;;;;5113614;28;19934;-61
2023/10/01 12:03:39;;;;;;;;;;;;;;;;;;5113482;28;20451;-61
2023/10/01 12:06:05;;;;;;;;;;;;;;;;;;5113330;28;19907;-61
2023/10/01 12:08:47;;;;;;;;;;;;;;;;;;5112142;28;19916;-62
2023/10/01 12:11:27;;;;;;;;;;;;;;;;;;5113182;28;19919;-60
2023/10/01 12:14:17;;;;;;;;;;;;;;;;;;5113656;28;20299;-61
2023/10/01 12:16:43;;;;;;;;;;;;;;;;;;5113426;28;19967;-60
2023/10/01 12:19:24;;;;;;;;;;;;;;;;;;5113200;28;19961;-61
2023/10/01 12:22:05;;;;;;;;;;;;;;;;;;5112749;28;20352;-61
2023/10/01 12:24:39;;;;;;;;;;;;;;;;;;5113113;28;19960;-61
2023/10/01 12:27:07;;;;;;;;;;;;;;;;;;5113248;28;20305;-61
2023/10/01 12:29:42;;;;;;;;;;;;;;;;;;5111695;28;19912;-62
2023/10/01 12:32:08;;;;;;;;;;;;;;;;;;5112978;28;20387;-62
2023/10/01 12:34:34;;;;;;;;;;;;;;;;;;5113040;28;19912;-60
2023/10/01 12:37:07;;;;;;;;;;;;;;;;;;5094737;28;19912;-61
2023/10/01 12:39:33;;;;;;;;;;;;;;;;;;5112945;28;19915;-61
2023/10/01 12:42:04;;;;;;;;;;;;;;;;;;5112879;28;19912;-61
2023/10/01 12:44:34;;;;;;;;;;;;;;;;;;5112708;28;20019;-62
2023/10/01 12:47:00;;;;;;;;;;;;;;;;;;5113048;28;19945;-60
2023/10/01 12:49:26;;;;;;;;;;;;;;;;;;5112349;28;20404;-63
2023/10/01 12:51:54;;;;;;;;;;;;;;;;;;5112292;28;20296;-62
2023/10/01 12:54:22;;;;;;;;;;;;;;;;;;5112585;28;19907;-62
2023/10/01 12:56:48;;;;;;;;;;;;;;;;;;5112951;28;19916;-61
2023/10/01 12:59:36;;;;;;;;;;;;;;;;;;5111331;28;20428;-62
2023/10/01 13:01:59;;;;;;;;;;;;;;;;;;5112218;28;20022;-62
2023/10/01 13:04:29;;;;;;;;;;;;;;;;;;5100625;28;20344;-62
2023/10/01 13:07:04;;;;;;;;;;;;;;;;;;5091733;28;19920;-62
2023/10/01 13:10:05;;;;;;;;;;;;;;;;;;5090461;28;19916;-63
2023/10/01 13:12:24;;;;;;;;;;;;;;;;;;5083765;28;19928;-62
2023/10/01 13:18:00;;;;;;;;;;;;;;;;;;5091983;28;20015;-64
2023/10/01 13:20:22;;;;;;;;;;;;;;;;;;5091271;28;19946;-65
2023/10/01 13:22:48;;;;;;;;;;;;;;;;;;5089183;28;19922;-65
2023/10/01 13:25:18;;;;;;;;;;;;;;;;;;5091497;28;19912;-65
2023/10/01 13:27:46;;;;;;;;;;;;;;;;;;5073137;28;19916;-64
2023/10/01 13:30:22;;;;;;;;;;;;;;;;;;5087582;28;20019;-64
2023/10/01 13:35:35;;;;;;;;;;;;;;;;;;5116092;28;20403;-63
2023/10/01 14:08:43;;;;;;;;;;;;;;;;;;5086104;28;19965;-64
2023/10/01 14:10:58;;;;;;;;;;;;;;;;;;5088957;28;19920;-63
2023/10/01 14:13:29;;;;;;;;;;;;;;;;;;5082150;28;19961;-62
2023/10/01 14:16:06;;;;;;;;;;;;;;;;;;5084992;28;19912;-65
2023/10/01 14:18:36;;;;;;;;;;;;;;;;;;5074684;28;19972;-64
2023/10/01 14:21:12;;;;;;;;;;;;;;;;;;5074620;28;20381;-65
2023/10/01 14:23:42;;;;;;;;;;;;;;;;;;5074657;28;19939;-65
2023/10/01 14:26:13;;;;;;;;;;;;;;;;;;5081634;28;20011;-63
2023/10/01 14:28:38;;;;;;;;;;;;;;;;;;5082774;28;19927;-64
2023/10/01 14:31:05;;;;;;;;;;;;;;;;;;5083646;28;19916;-63
2023/10/01 14:33:30;;;;;;;;;;;;;;;;;;5084948;28;20293;-64
2023/10/01 14:35:57;;;;;;;;;;;;;;;;;;5082708;28;19908;-61
2023/10/01 14:38:22;;;;;;;;;;;;;;;;;;5088701;28;19962;-63
2023/10/01 14:40:56;;;;;;;;;;;;;;;;;;5094281;28;19912;-61
2023/10/01 14:43:24;;;;;;;;;;;;;;;;;;5094448;28;19971;-61
2023/10/01 14:45:51;;;;;;;;;;;;;;;;;;5091567;28;20018;-60
2023/10/01 14:48:16;;;;;;;;;;;;;;;;;;5075068;28;19923;-58
2023/10/01 14:50:42;;;;;;;;;;;;;;;;;;5072606;28;20427;-61
2023/10/01 14:53:07;;;;;;;;;;;;;;;;;;5074161;28;19920;-62
2023/10/01 14:55:40;;;;;;;;;;;;;;;;;;5073915;28;19919;-60
2023/10/01 14:58:12;;;;;;;;;;;;;;;;;;5091087;28;20427;-59
2023/10/01 15:00:49;;;;;;;;;;;;;;;;;;5092700;28;19950;-61
2023/10/01 15:03:14;;;;;;;;;;;;;;;;;;5094077;28;19959;-61
2023/10/01 15:05:39;;;;;;;;;;;;;;;;;;5086797;28;19947;-62
2023/10/01 15:08:05;;;;;;;;;;;;;;;;;;5092709;28;19916;-59
2023/10/01 15:10:32;;;;;;;;;;;;;;;;;;5092395;28;19927;-61
2023/10/01 15:13:01;;;;;;;;;;;;;;;;;;5058061;28;19922;-59
2023/10/01 15:15:27;;;;;;;;;;;;;;;;;;5073693;28;19913;-57
2023/10/01 15:17:56;;;;;;;;;;;;;;;;;;5055542;28;19923;-59
2023/10/01 15:20:27;;;;;;;;;;;;;;;;;;5073398;28;19917;-59
2023/10/01 15:22:55;;;;;;;;;;;;;;;;;;5071872;28;19923;-59
2023/10/01 15:25:21;;;;;;;;;;;;;;;;;;5073136;28;20278;-61
2023/10/01 15:27:47;;;;;;;;;;;;;;;;;;5072872;28;20023;-60
2023/10/01 15:30:21;;;;;;;;;;;;;;;;;;5073234;28;19920;-59
2023/10/01 15:32:59;;;;;;;;;;;;;;;;;;5085198;28;20305;-61
2023/10/01 15:35:25;;;;;;;;;;;;;;;;;;5093328;28;20007;-60
2023/10/01 15:37:50;;;;;;;;;;;;;;;;;;5085435;28;20011;-60
2023/10/01 15:40:24;;;;;;;;;;;;;;;;;;5083294;28;19912;-61
2023/10/01 15:42:53;;;;;;;;;;;;;;;;;;5081852;28;20373;-60
2023/10/01 15:45:18;;;;;;;;;;;;;;;;;;5092913;28;19919;-60
2023/10/01 15:47:46;;;;;;;;;;;;;;;;;;5081844;28;19916;-61
2023/10/01 15:50:12;;;;;;;;;;;;;;;;;;5075337;28;19920;-61
2023/10/01 15:52:37;;;;;;;;;;;;;;;;;;5076946;28;19916;-60
2023/10/01 15:55:03;;;;;;;;;;;;;;;;;;5089917;28;19912;-61
2023/10/01 15:57:31;;;;;;;;;;;;;;;;;;5087899;28;19957;-61
2023/10/01 15:59:56;;;;;;;;;;;;;;;;;;5092754;28;19912;-62
2023/10/01 16:02:21;;;;;;;;;;;;;;;;;;5087805;28;19924;-60
2023/10/01 16:04:47;;;;;;;;;;;;;;;;;;5083204;28;19916;-58
2023/10/01 16:07:12;;;;;;;;;;;;;;;;;;5082864;28;20310;-60
2023/10/01 16:09:40;;;;;;;;;;;;;;;;;;5082508;28;19912;-61
2023/10/01 16:12:06;;;;;;;;;;;;;;;;;;5080737;28;19939;-58
2023/10/01 16:14:32;;;;;;;;;;;;;;;;;;5082315;28;19912;-62
2023/10/01 16:17:15;;;;;;;;;;;;;;;;;;5085817;28;19920;-60
2023/10/01 16:19:44;;;;;;;;;;;;;;;;;;5082244;28;19948;-59
2023/10/01 16:22:09;;;;;;;;;;;;;;;;;;5079618;28;19923;-60
2023/10/01 16:24:39;;;;;;;;;;;;;;;;;;5082033;28;19911;-60
2023/10/01 16:27:06;;;;;;;;;;;;;;;;;;5082360;28;19916;-60
2023/10/01 16:29:31;;;;;;;;;;;;;;;;;;5081207;28;19912;-61
2023/10/01 16:31:57;;;;;;;;;;;;;;;;;;5080544;28;20019;-58
2023/10/01 16:34:25;;;;;;;;;;;;;;;;;;5079969;28;19947;-62
2023/10/01 16:36:51;;;;;;;;;;;;;;;;;;5074393;28;19923;-62
2023/10/01 16:39:19;;;;;;;;;;;;;;;;;;5071285;28;19912;-60
2023/10/01 16:41:44;;;;;;;;;;;;;;;;;;5083683;28;19961;-58
2023/10/01 16:44:10;;;;;;;;;;;;;;;;;;5090341;28;19912;-60
2023/10/01 16:46:41;;;;;;;;;;;;;;;;;;5084118;28;20007;-58
2023/10/01 16:49:06;;;;;;;;;;;;;;;;;;5080063;28;20286;-62
2023/10/01 16:51:35;;;;;;;;;;;;;;;;;;5071659;28;19921;-62
2023/10/01 16:54:01;;;;;;;;;;;;;;;;;;5070209;28;19916;-61
2023/10/01 16:56:26;;;;;;;;;;;;;;;;;;5071232;28;19965;-62
2023/10/01 16:58:52;;;;;;;;;;;;;;;;;;5061194;28;19911;-61
2023/10/01 17:01:17;;;;;;;;;;;;;;;;;;5112137;28;19976;-61
2023/10/01 17:03:50;;;;;;;;;;;;;;;;;;5102895;28;19926;-62
2023/10/01 17:06:16;;;;;;;;;;;;;;;;;;5078468;28;19912;-60
2023/10/01 17:08:41;;;;;;;;;;;;;;;;;;5076131;28;20072;-61
2023/10/01 17:11:06;;;;;;;;;;;;;;;;;;5070965;28;20310;-60
2023/10/01 17:13:33;;;;;;;;;;;;;;;;;;5076858;28;19919;-61
2023/10/01 17:16:00;;;;;;;;;;;;;;;;;;5080857;28;19946;-62
2023/10/01 17:18:38;;;;;;;;;;;;;;;;;;5079918;28;20458;-60
2023/10/01 17:21:12;;;;;;;;;;;;;;;;;;5080050;28;19999;-61
2023/10/01 17:23:40;;;;;;;;;;;;;;;;;;5081125;28;20014;-63
2023/10/01 17:26:07;;;;;;;;;;;;;;;;;;5078661;28;19996;-61
2023/10/01 17:28:32;;;;;;;;;;;;;;;;;;5079909;28;19913;-62
2023/10/01 17:31:07;;;;;;;;;;;;;;;;;;5080626;28;19920;-62
2023/10/01 17:33:36;;;;;;;;;;;;;;;;;;5080308;28;19919;-62
2023/10/01 17:36:04;;;;;;;;;;;;;;;;;;5080697;28;20323;-64
2023/10/01 17:38:29;;;;;;;;;;;;;;;;;;5082288;28;19915;-62
2023/10/01 17:40:56;;;;;;;;;;;;;;;;;;5077748;28;20428;-62
2023/10/01 17:43:27;;;;;;;;;;;;;;;;;;5080884;28;20022;-62
2023/10/01 17:45:52;;;;;;;;;;;;;;;;;;5075954;28;19923;-61
2023/10/01 17:48:18;;;;;;;;;;;;;;;;;;5077217;28;19985;-61
2023/10/01 17:50:49;;;;;;;;;;;;;;;;;;5078440;28;19928;-62